createdAt,value
2023-04-19T00:00:00.227Z,4.5
2023-04-19T00:05:00.447Z,4.4
2023-04-19T00:10:00.236Z,4.5
2023-04-19T00:15:00.234Z,4.5
2023-04-19T00:20:00.242Z,4.7
2023-04-19T00:25:00.249Z,4.7
2023-04-19T00:30:00.250Z,4.5
2023-04-19T00:35:00.238Z,4.7
2023-04-19T00:40:00.252Z,4.7
2023-04-19T00:45:00.249Z,4.8
2023-04-19T00:50:00.237Z,5.0
2023-04-19T00:55:00.268Z,5.2
2023-04-19T01:00:00.266Z,5.0
2023-04-19T01:05:00.236Z,5.0
2023-04-19T01:10:00.239Z,5.2
2023-04-19T01:15:00.284Z,5.2
2023-04-19T01:20:00.229Z,5.0
2023-04-19T01:25:00.240Z,5.0
2023-04-19T01:30:00.245Z,5.0
2023-04-19T01:35:00.240Z,5.3
2023-04-19T01:40:00.236Z,5.2
2023-04-19T01:45:00.244Z,5.2
2023-04-19T01:50:00.253Z,5.3
2023-04-19T01:55:00.247Z,5.4
2023-04-19T02:00:00.237Z,5.4
2023-04-19T02:05:00.247Z,5.5
2023-04-19T02:10:00.235Z,5.6
2023-04-19T02:15:00.237Z,5.6
2023-04-19T02:20:00.271Z,5.5
2023-04-19T02:25:00.256Z,5.6
2023-04-19T02:30:00.235Z,5.6
2023-04-19T02:35:00.233Z,5.7
2023-04-19T02:40:00.238Z,5.9
2023-04-19T02:45:00.233Z,5.7
2023-04-19T02:50:00.231Z,5.8
2023-04-19T02:55:00.261Z,5.7
2023-04-19T03:00:00.241Z,5.6
2023-04-19T03:05:00.241Z,5.5
2023-04-19T03:10:00.257Z,5.4
2023-04-19T03:15:00.243Z,5.3
2023-04-19T03:20:00.247Z,5.2
2023-04-19T03:25:00.226Z,5.2
2023-04-19T03:30:01.028Z,5.1
2023-04-19T03:35:00.246Z,5.1
2023-04-19T03:40:00.224Z,5.0
2023-04-19T03:45:00.226Z,5.0
2023-04-19T03:50:00.218Z,5.0
2023-04-19T03:55:00.220Z,5.0
2023-04-19T04:00:00.244Z,4.8
2023-04-19T04:05:00.383Z,4.9
2023-04-19T04:10:00.231Z,4.9
2023-04-19T04:15:00.236Z,4.9
2023-04-19T04:20:00.215Z,5.0
2023-04-19T04:25:00.219Z,4.8
2023-04-19T04:30:00.266Z,4.8
2023-04-19T04:35:00.231Z,4.6
2023-04-19T04:40:00.251Z,4.7
2023-04-19T04:45:00.247Z,4.5
2023-04-19T04:50:00.231Z,4.4
2023-04-19T04:55:00.249Z,4.2
2023-04-19T05:00:00.280Z,4.2
2023-04-19T05:05:00.240Z,4.0
2023-04-19T05:10:00.229Z,3.9
2023-04-19T05:15:00.243Z,3.7
2023-04-19T05:20:00.229Z,3.6
2023-04-19T05:25:00.226Z,3.6
2023-04-19T05:30:00.249Z,3.3
2023-04-19T05:35:00.242Z,3.2
2023-04-19T05:40:00.236Z,3.1
2023-04-19T05:45:00.248Z,2.8
2023-04-19T05:50:00.227Z,2.3
2023-04-19T05:55:00.308Z,1.8
2023-04-19T06:05:02.685Z,1.4
2023-04-19T06:10:00.263Z,0.7
2023-04-19T06:15:00.230Z,1.1
2023-04-19T06:20:00.251Z,0.8
2023-04-19T06:25:00.244Z,1.3
2023-04-19T06:30:00.225Z,1.0
2023-04-19T06:35:00.261Z,0.9
2023-04-19T06:40:00.238Z,1.2
2023-04-19T06:45:00.246Z,1.3
2023-04-19T06:50:00.241Z,1.3
2023-04-19T06:55:00.242Z,1.2
2023-04-19T07:00:00.243Z,1.1
2023-04-19T07:05:00.243Z,1.3
2023-04-19T07:10:00.236Z,1.1
2023-04-19T07:15:00.242Z,1.3
2023-04-19T07:20:00.237Z,1.3
2023-04-19T07:25:00.241Z,0.6
2023-04-19T07:30:00.233Z,0.8
2023-04-19T07:35:00.241Z,1.0
2023-04-19T07:40:00.275Z,1.2
2023-04-19T07:45:00.226Z,0.8
2023-04-19T07:50:00.314Z,0.8
2023-04-19T07:55:00.236Z,0.5
2023-04-19T08:00:00.217Z,0.3
2023-04-19T08:05:00.369Z,0.2
2023-04-19T08:10:00.366Z,0.4
2023-04-19T08:15:07.777Z,-0.2
2023-04-19T08:20:00.245Z,0.6
2023-04-19T08:25:00.262Z,0.2
2023-04-19T08:30:00.239Z,0.0
2023-04-19T08:35:00.252Z,-0.1
2023-04-19T08:40:00.242Z,0.4
2023-04-19T08:50:09.166Z,0.5
2023-04-19T08:55:00.268Z,0.7
2023-04-19T09:00:00.245Z,0.9
2023-04-19T09:05:00.388Z,0.7
2023-04-19T09:10:03.440Z,0.8
2023-04-19T09:15:02.183Z,0.8
2023-04-19T09:20:00.258Z,0.5
2023-04-19T09:30:00.345Z,0.7
2023-04-19T09:35:00.255Z,0.6
2023-04-19T09:40:00.231Z,0.8
2023-04-19T09:50:00.759Z,0.5
2023-04-19T09:55:00.998Z,0.7
2023-04-19T10:00:00.245Z,0.2
2023-04-19T10:05:16.185Z,0.3
2023-04-19T10:10:11.743Z,0.4
2023-04-19T10:15:00.299Z,-0.1
2023-04-19T10:20:00.273Z,0.5
2023-04-19T10:25:00.241Z,0.4
2023-04-19T10:30:00.225Z,0.3
2023-04-19T10:35:00.251Z,0.0
2023-04-19T10:40:00.276Z,-0.1
2023-04-19T10:45:00.276Z,-0.7
2023-04-19T10:50:00.224Z,-0.1
2023-04-19T10:55:00.252Z,-0.7
2023-04-19T11:00:00.223Z,-1.1
2023-04-19T11:05:00.250Z,-1.3
2023-04-19T11:10:00.233Z,-2.1
2023-04-19T11:15:00.285Z,-2.7
2023-04-19T11:20:00.262Z,-1.9
2023-04-19T11:25:00.244Z,-1.7
2023-04-19T11:30:00.253Z,-1.6
2023-04-19T11:35:00.241Z,-1.4
2023-04-19T11:40:01.624Z,-2.2
2023-04-19T11:45:00.238Z,-1.8
2023-04-19T11:50:00.236Z,-1.6
2023-04-19T11:55:00.233Z,-2.2
2023-04-19T12:00:00.257Z,-0.9
2023-04-19T12:05:00.490Z,-0.7
2023-04-19T12:10:00.234Z,-0.3
2023-04-19T12:15:00.253Z,-0.5
2023-04-19T12:20:00.246Z,-0.5
2023-04-19T12:25:00.231Z,-0.7
2023-04-19T12:30:00.236Z,-0.2
2023-04-19T12:35:00.232Z,-0.7
2023-04-19T12:40:00.256Z,-0.3
2023-04-19T12:45:00.237Z,-0.4
2023-04-19T12:50:00.223Z,-1.2
2023-04-19T12:55:00.244Z,-1.0
2023-04-19T13:00:00.242Z,-1.1
2023-04-19T13:05:00.349Z,-1.3
2023-04-19T13:10:00.263Z,-1.6
2023-04-19T13:15:02.649Z,-1.0
2023-04-19T13:20:00.230Z,-1.1
2023-04-19T13:25:00.233Z,-1.0
2023-04-19T13:30:00.232Z,-0.7
2023-04-19T13:35:00.256Z,-0.6
2023-04-19T13:40:14.828Z,-0.2
2023-04-19T13:45:00.241Z,-0.3
2023-04-19T13:50:00.246Z,-0.8
2023-04-19T13:55:00.250Z,0.2
2023-04-19T14:00:00.251Z,-0.2
2023-04-19T14:05:00.260Z,-0.5
2023-04-19T14:10:00.249Z,0.2
2023-04-19T14:15:00.242Z,0.3
2023-04-19T14:20:00.244Z,0.1
2023-04-19T14:25:00.248Z,0.9
2023-04-19T14:30:00.224Z,0.5
2023-04-19T14:35:00.252Z,-0.2
2023-04-19T14:40:00.236Z,-0.0
2023-04-19T14:45:00.230Z,-0.1
2023-04-19T14:50:00.264Z,0.3
2023-04-19T14:55:00.332Z,1.1
2023-04-19T15:00:00.326Z,0.8
2023-04-19T15:05:00.522Z,0.5
2023-04-19T15:10:00.349Z,-0.2
2023-04-19T15:15:00.245Z,0.8
2023-04-19T15:20:00.369Z,0.1
2023-04-19T15:25:00.254Z,0.8
2023-04-19T15:30:00.246Z,0.7
2023-04-19T15:35:00.253Z,1.1
2023-04-19T15:40:00.241Z,1.1
2023-04-19T15:45:00.252Z,0.4
2023-04-19T15:50:00.243Z,0.7
2023-04-19T15:55:00.247Z,0.6
2023-04-19T16:00:00.307Z,0.3
2023-04-19T16:05:00.338Z,0.1
2023-04-19T16:10:00.250Z,0.2
2023-04-19T16:15:00.236Z,1.0
2023-04-19T16:20:00.244Z,1.6
2023-04-19T16:25:00.261Z,0.7
2023-04-19T16:30:00.257Z,0.3
2023-04-19T16:35:00.248Z,0.5
2023-04-19T16:40:00.260Z,0.8
2023-04-19T16:45:00.284Z,0.8
2023-04-19T16:50:00.235Z,0.8
2023-04-19T16:55:00.247Z,0.8
2023-04-19T17:00:00.343Z,1.2
2023-04-19T17:05:00.557Z,-0.0
2023-04-19T17:10:00.251Z,-0.0
2023-04-19T17:15:00.277Z,0.2
2023-04-19T17:20:00.241Z,-0.2
2023-04-19T17:25:00.239Z,0.1
2023-04-19T17:30:00.248Z,-0.3
2023-04-19T17:35:00.239Z,0.3
2023-04-19T17:40:00.220Z,-0.3
2023-04-19T17:45:00.397Z,-0.1
2023-04-19T17:50:00.252Z,-0.3
2023-04-19T17:55:00.234Z,-0.5
2023-04-19T18:00:00.257Z,-0.2
2023-04-19T18:05:00.466Z,0.0
2023-04-19T18:10:00.243Z,-1.1
2023-04-19T18:15:00.243Z,-1.2
2023-04-19T18:20:00.240Z,-1.3
2023-04-19T18:25:00.237Z,-1.1
2023-04-19T18:30:00.320Z,-1.2
2023-04-19T18:35:00.248Z,-0.7
2023-04-19T18:40:00.338Z,-1.8
2023-04-19T18:45:00.242Z,-2.0
2023-04-19T18:50:05.614Z,-2.2
2023-04-19T18:55:00.242Z,-2.7
2023-04-19T19:00:00.235Z,-2.0
2023-04-19T19:05:02.076Z,-2.8
2023-04-19T19:10:01.455Z,-3.0
2023-04-19T19:15:00.262Z,-2.4
2023-04-19T19:20:00.255Z,-2.5
2023-04-19T19:25:00.241Z,-2.7
2023-04-19T19:30:00.250Z,-3.1
2023-04-19T19:40:03.679Z,-2.8
2023-04-19T19:45:00.233Z,-2.5
2023-04-19T19:55:00.247Z,-3.0
2023-04-19T20:00:18.165Z,-3.1
2023-04-19T20:05:00.432Z,-3.3
2023-04-19T20:10:00.245Z,-3.1
2023-04-19T20:15:00.239Z,-3.1
2023-04-19T20:20:00.259Z,-3.2
2023-04-19T20:25:00.226Z,-3.3
2023-04-19T20:30:00.241Z,-3.4
2023-04-19T20:35:00.259Z,-3.4
2023-04-19T20:40:00.231Z,-3.9
2023-04-19T20:45:00.293Z,-3.3
2023-04-19T20:50:00.238Z,-3.7
2023-04-19T20:55:00.239Z,-3.6
2023-04-19T21:00:00.226Z,-3.6
2023-04-19T21:05:00.284Z,-3.7
2023-04-19T21:10:00.234Z,-3.6
2023-04-19T21:15:00.236Z,-3.7
2023-04-19T21:20:00.245Z,-3.7
2023-04-19T21:25:00.292Z,-4.0
2023-04-19T21:30:00.243Z,-3.8
2023-04-19T21:35:00.230Z,-3.9
2023-04-19T21:40:00.246Z,-4.0
2023-04-19T21:45:00.267Z,-3.8
2023-04-19T21:50:00.256Z,-4.1
2023-04-19T21:55:00.233Z,-4.0
2023-04-19T22:00:00.237Z,-4.0
2023-04-19T22:05:00.374Z,-4.0
2023-04-19T22:10:00.229Z,-3.7
2023-04-19T22:15:00.272Z,-3.7
2023-04-19T22:20:00.245Z,-3.8
2023-04-19T22:25:00.254Z,-3.7
2023-04-19T22:30:00.235Z,-3.7
2023-04-19T22:35:00.436Z,-3.7
2023-04-19T22:40:00.237Z,-3.5
2023-04-19T22:45:00.270Z,-3.6
2023-04-19T22:50:00.222Z,-3.3
2023-04-19T22:55:00.243Z,-3.5
2023-04-19T23:00:00.227Z,-3.4
2023-04-19T23:05:00.468Z,-3.0
2023-04-19T23:10:00.246Z,-3.0
2023-04-19T23:15:00.248Z,-2.7
2023-04-19T23:20:00.258Z,-3.0
2023-04-19T23:25:00.247Z,-2.8
2023-04-19T23:30:00.313Z,-2.7
2023-04-19T23:35:00.307Z,-2.8
2023-04-19T23:40:00.237Z,-2.7
2023-04-19T23:45:00.262Z,-2.9
2023-04-19T23:50:00.394Z,-2.9
2023-04-19T23:55:00.236Z,-2.9
